Time;durP1;ratioP1;P1;durP2;ratioP2;P2;SDS_P1;SDS_P2;PMS_P1;PMS_P2;Temp;Humidity;BMP_temperature;BMP_pressure;BME280_temperature;BME280_humidity;BME280_pressure;Samples;Min_cycle;Max_cycle;Signal;HPM_P1;HPM_P2
2023/09/25 00:00:19;;;;;;;2.28;1.02;;;;;;;15.55;37.70;101819.38;5063972;28;20149;-83
2023/09/25 00:02:49;;;;;;;2.17;1.10;;;;;;;15.54;37.38;101821.25;5052932;28;20067;-84
2023/09/25 00:05:18;;;;;;;3.25;1.27;;;;;;;15.56;37.36;101815.59;5069732;28;20691;-82
2023/09/25 00:07:47;;;;;;;2.30;1.33;;;;;;;15.51;37.32;101811.38;5050738;28;20050;-84
2023/09/25 00:10:15;;;;;;;1.42;1.17;;;;;;;15.52;37.28;101802.09;5044700;28;20325;-85
2023/09/25 00:12:45;;;;;;;2.03;1.35;;;;;;;15.52;37.51;101807.59;5048034;28;20052;-84
2023/09/25 00:15:13;;;;;;;2.10;1.00;;;;;;;15.52;37.43;101809.47;5047781;28;20056;-84
2023/09/25 00:17:42;;;;;;;1.80;1.10;;;;;;;15.50;37.42;101806.91;5048013;28;20052;-85
2023/09/25 00:20:12;;;;;;;1.95;1.10;;;;;;;15.50;37.15;101817.94;5066113;28;20094;-84
2023/09/25 00:22:42;;;;;;;2.15;1.20;;;;;;;15.54;37.72;101812.09;5073647;28;20052;-84
2023/09/25 00:25:10;;;;;;;2.70;1.20;;;;;;;15.51;37.61;101818.78;5065076;28;20101;-84
2023/09/25 00:27:38;;;;;;;1.77;1.00;;;;;;;15.50;37.75;101822.56;5063259;28;20053;-83
2023/09/25 00:30:09;;;;;;;3.40;1.38;;;;;;;15.51;37.64;101825.16;5053416;28;20052;-83
2023/09/25 00:32:37;;;;;;;2.17;1.15;;;;;;;15.50;37.97;101817.94;5043348;28;20597;-84
2023/09/25 00:35:06;;;;;;;1.65;1.10;;;;;;;15.51;37.53;101816.00;5041641;28;20052;-83
2023/09/25 00:37:34;;;;;;;2.72;1.10;;;;;;;15.49;37.48;101807.91;5042485;28;20111;-84
2023/09/25 00:40:13;;;;;;;3.75;1.27;;;;;;;15.52;37.77;101817.75;5042302;28;20540;-84
2023/09/25 00:42:42;;;;;;;2.38;1.10;;;;;;;15.50;37.39;101826.22;5059364;28;20051;-84
2023/09/25 00:45:11;;;;;;;1.67;1.10;;;;;;;15.50;37.40;101811.53;5068778;28;20048;-84
2023/09/25 00:47:40;;;;;;;2.60;1.10;;;;;;;15.49;37.72;101815.31;5045130;28;20138;-83
2023/09/25 00:50:09;;;;;;;1.70;1.00;;;;;;;15.48;37.50;101810.81;5045842;28;20576;-83
2023/09/25 00:52:40;;;;;;;3.13;1.30;;;;;;;15.49;37.41;101823.59;5044281;28;20062;-84
2023/09/25 00:55:11;;;;;;;1.98;1.20;;;;;;;15.50;37.78;101811.53;5060282;28;20117;-83
2023/09/25 00:57:40;;;;;;;2.03;1.17;;;;;;;15.47;37.59;101817.34;5041029;28;20636;-83
2023/09/25 01:00:11;;;;;;;2.45;1.10;;;;;;;15.47;37.98;101818.22;5040396;28;20053;-84
2023/09/25 01:02:39;;;;;;;1.98;1.20;;;;;;;15.46;37.78;101821.97;5041569;28;20656;-83
2023/09/25 01:05:09;;;;;;;2.05;1.30;;;;;;;15.47;38.08;101820.09;5043122;28;20040;-84
2023/09/25 01:07:37;;;;;;;1.88;1.00;;;;;;;15.45;37.67;101824.88;5043669;28;20045;-84
2023/09/25 01:10:08;;;;;;;2.00;1.10;;;;;;;15.47;37.71;101825.59;5042918;28;20056;-83
2023/09/25 01:12:37;;;;;;;1.98;1.20;;;;;;;15.45;37.81;101827.63;5044431;28;20048;-81
2023/09/25 01:15:07;;;;;;;2.35;1.40;;;;;;;15.43;37.59;101830.53;5043151;28;20087;-83
2023/09/25 01:17:36;;;;;;;2.53;1.00;;;;;;;15.41;37.97;101823.44;5043631;28;20059;-83
2023/09/25 01:20:12;;;;;;;2.40;1.00;;;;;;;15.41;37.83;101823.44;5042975;28;20114;-83
2023/09/25 01:22:43;;;;;;;1.85;1.10;;;;;;;15.40;37.71;101824.44;5042859;28;20768;-84
2023/09/25 01:25:12;;;;;;;2.03;1.10;;;;;;;15.37;37.79;101820.06;5062526;28;20048;-84
2023/09/25 01:27:42;;;;;;;1.55;1.20;;;;;;;15.35;37.71;101824.84;5068190;28;20102;-83
2023/09/25 01:30:11;;;;;;;1.80;1.08;;;;;;;15.35;37.92;101812.94;5042069;28;20124;-83
2023/09/25 01:32:40;;;;;;;1.67;1.08;;;;;;;15.33;38.22;101814.97;5041830;28;20052;-83
2023/09/25 01:35:13;;;;;;;2.13;1.25;;;;;;;15.33;38.30;101814.97;5062383;28;20525;-83
2023/09/25 01:37:43;;;;;;;2.08;1.10;;;;;;;15.33;38.22;101824.13;5042130;28;20300;-84
2023/09/25 01:40:15;;;;;;;2.45;1.20;;;;;;;15.31;38.19;101816.97;5041454;28;20114;-83
2023/09/25 01:42:44;;;;;;;2.15;1.20;;;;;;;15.27;38.07;101821.03;5041911;28;20122;-83
2023/09/25 01:45:16;;;;;;;1.85;1.10;;;;;;;15.29;38.28;101816.25;5068308;28;20048;-84
2023/09/25 01:47:49;;;;;;;2.27;1.20;;;;;;;15.26;37.90;101828.44;5043508;28;20044;-84
2023/09/25 01:50:18;;;;;;;2.55;1.30;;;;;;;15.27;38.10;101823.78;5045238;28;20299;-84
2023/09/25 01:52:49;;;;;;;1.92;1.10;;;;;;;15.30;38.44;101829.03;5050390;28;20120;-84
2023/09/25 01:55:17;;;;;;;2.80;1.33;;;;;;;15.27;37.91;101821.03;5062361;28;20438;-84
2023/09/25 01:57:45;;;;;;;2.80;1.10;;;;;;;15.25;38.21;101823.06;5047710;28;20098;-84
2023/09/25 02:00:16;;;;;;;1.50;0.98;;;;;;;15.25;38.51;101837.75;5044138;28;20139;-83
2023/09/25 02:02:45;;;;;;;1.77;1.13;;;;;;;15.24;37.93;101830.47;5047045;28;20048;-83
2023/09/25 02:05:13;;;;;;;1.52;1.00;;;;;;;15.23;37.84;101828.72;5072142;28;20043;-83
2023/09/25 02:07:42;;;;;;;1.83;1.20;;;;;;;15.22;38.22;101826.09;5065454;28;20083;-84
2023/09/25 02:10:11;;;;;;;2.30;1.10;;;;;;;15.24;38.10;101827.72;5068804;28;20064;-83
2023/09/25 02:12:39;;;;;;;1.90;1.17;;;;;;;15.22;38.42;101826.97;5045008;28;20044;-83
2023/09/25 02:15:08;;;;;;;1.92;1.02;;;;;;;15.22;38.28;101831.63;5040036;28;20175;-84
2023/09/25 02:17:36;;;;;;;2.38;1.10;;;;;;;15.21;38.05;101827.13;5040629;28;20048;-84
2023/09/25 02:20:19;;;;;;;2.35;1.10;;;;;;;15.22;38.10;101826.09;5069695;28;20048;-83
2023/09/25 02:22:47;;;;;;;1.90;1.05;;;;;;;15.17;38.17;101831.19;5042598;28;20495;-83
2023/09/25 02:25:17;;;;;;;2.05;1.10;;;;;;;15.20;38.42;101831.75;5042383;28;20056;-84
2023/09/25 02:27:46;;;;;;;2.17;1.20;;;;;;;15.18;38.48;101832.94;5056636;28;20044;-83
2023/09/25 02:30:15;;;;;;;1.33;0.95;;;;;;;15.18;38.23;101828.25;5041481;28;20045;-83
2023/09/25 02:32:44;;;;;;;1.85;1.10;;;;;;;15.16;38.31;101829.44;5065916;28;20135;-84
2023/09/25 02:35:13;;;;;;;1.98;1.20;;;;;;;15.16;38.24;101834.94;5042019;28;20059;-84
2023/09/25 02:37:42;;;;;;;1.98;1.13;;;;;;;15.14;38.09;101835.97;5041583;28;20096;-83
2023/09/25 02:40:13;;;;;;;3.38;1.27;;;;;;;15.14;38.09;101841.47;5057738;28;20060;-83
2023/09/25 02:42:45;;;;;;;2.28;1.00;;;;;;;15.13;38.10;101841.59;5041570;28;20060;-83
2023/09/25 02:45:15;;;;;;;1.98;1.10;;;;;;;15.11;38.26;101846.38;5040360;28;20570;-83
2023/09/25 02:47:44;;;;;;;1.60;1.10;;;;;;;15.10;38.55;101848.25;5067187;28;20051;-84
2023/09/25 02:50:13;;;;;;;2.35;1.30;;;;;;;15.09;38.48;101846.50;5040270;28;20629;-83
2023/09/25 02:52:43;;;;;;;2.42;1.20;;;;;;;15.11;38.65;101840.88;5042279;28;20048;-82
2023/09/25 02:55:12;;;;;;;2.92;1.52;;;;;;;15.10;38.40;101847.38;5040858;28;20056;-84
2023/09/25 02:57:40;;;;;;;2.53;1.23;;;;;;;15.10;38.68;101837.22;5039432;28;20071;-82
2023/09/25 03:00:11;;;;;;;2.33;1.30;;;;;;;15.11;38.36;101843.63;5046724;28;20307;-84
2023/09/25 03:02:41;;;;;;;1.95;1.30;;;;;;;15.08;38.76;101838.41;5040749;28;20090;-84
2023/09/25 03:05:11;;;;;;;1.80;1.10;;;;;;;15.08;38.38;101843.94;5068901;28;20048;-81
2023/09/25 03:07:40;;;;;;;1.73;1.13;;;;;;;15.08;38.40;101843.94;5040731;28;20056;-83
2023/09/25 03:10:08;;;;;;;1.95;1.08;;;;;;;15.07;38.29;101855.97;5055976;28;20574;-83
2023/09/25 03:12:36;;;;;;;2.03;1.20;;;;;;;15.05;38.45;101849.72;5040116;28;20056;-84
2023/09/25 03:15:06;;;;;;;2.38;1.30;;;;;;;15.07;38.38;101858.72;5043086;28;20516;-83
2023/09/25 03:17:36;;;;;;;3.03;1.38;;;;;;;15.06;38.32;101851.47;5039764;28;20047;-83
2023/09/25 03:20:12;;;;;;;2.63;1.10;;;;;;;15.04;38.62;101858.97;5041312;28;20151;-83
2023/09/25 03:22:41;;;;;;;1.73;1.20;;;;;;;15.01;38.58;101854.63;5040214;28;20052;-83
2023/09/25 03:25:10;;;;;;;1.48;0.98;;;;;;;15.01;38.62;101864.78;5057954;28;20064;-84
2023/09/25 03:27:38;;;;;;;1.98;1.10;;;;;;;14.99;38.78;101864.06;5057807;28;20130;-83
2023/09/25 03:30:07;;;;;;;1.88;1.30;;;;;;;14.98;38.45;101871.44;5041321;28;20044;-85
2023/09/25 03:32:37;;;;;;;2.78;1.45;;;;;;;14.96;38.53;101876.22;5042539;28;20140;-84
2023/09/25 03:35:06;;;;;;;1.88;1.23;;;;;;;14.95;38.34;101881.88;5043342;28;20070;-83
2023/09/25 03:37:34;;;;;;;2.47;1.38;;;;;;;14.93;38.63;101878.41;5044139;28;20511;-84
2023/09/25 03:40:07;;;;;;;1.77;1.15;;;;;;;14.91;38.43;101880.41;5047500;28;20055;-84
2023/09/25 03:42:36;;;;;;;1.73;1.00;;;;;;;14.89;38.79;101879.66;5047323;28;20052;-84
2023/09/25 03:45:05;;;;;;;2.47;1.50;;;;;;;14.88;38.79;101873.28;5078945;28;20118;-84
2023/09/25 03:47:34;;;;;;;2.72;1.45;;;;;;;14.87;38.73;101873.41;5078097;28;20036;-84
2023/09/25 03:50:04;;;;;;;2.83;1.20;;;;;;;14.85;38.78;101879.06;5090329;27;20033;-84
2023/09/25 03:52:32;;;;;;;3.53;1.38;;;;;;;14.81;38.58;101880.38;5059436;28;20063;-85
2023/09/25 03:55:00;;;;;;;2.45;1.30;;;;;;;14.81;39.04;101876.72;5064720;28;20041;-84
2023/09/25 03:57:28;;;;;;;2.65;1.38;;;;;;;14.77;38.50;101877.00;5068050;28;20048;-86
2023/09/25 03:59:56;;;;;;;2.20;1.27;;;;;;;14.77;38.77;101874.25;5045713;28;20136;-86
2023/09/25 04:02:24;;;;;;;2.15;1.20;;;;;;;14.76;39.03;101878.00;5063994;28;20522;-86
2023/09/25 04:04:52;;;;;;;1.85;1.30;;;;;;;14.73;38.82;101878.28;5061891;28;20292;-86
2023/09/25 04:07:22;;;;;;;2.35;1.48;;;;;;;14.74;38.88;101877.28;5045486;28;20060;-86
2023/09/25 04:09:50;;;;;;;2.53;1.58;;;;;;;14.69;38.86;101875.94;5060047;28;20076;-85
2023/09/25 04:12:19;;;;;;;2.45;1.30;;;;;;;14.67;39.07;101872.47;5043679;28;20062;-85
2023/09/25 04:14:47;;;;;;;2.13;1.30;;;;;;;14.65;39.12;101874.47;5040823;28;20061;-86
2023/09/25 04:17:15;;;;;;;3.25;1.40;;;;;;;14.59;39.01;101873.16;5064971;28;20060;-85
2023/09/25 04:19:44;;;;;;;2.30;1.40;;;;;;;14.56;38.90;101873.41;5056588;28;20048;-85
2023/09/25 04:22:12;;;;;;;1.45;1.05;;;;;;;14.53;39.30;101875.53;5039109;28;20055;-85
2023/09/25 04:24:42;;;;;;;2.97;1.42;;;;;;;14.48;39.04;101873.22;5039587;28;20098;-87
2023/09/25 04:27:11;;;;;;;1.98;1.38;;;;;;;14.44;38.82;101874.44;5059705;28;20161;-86
2023/09/25 04:29:41;;;;;;;2.55;1.13;;;;;;;14.41;39.20;101871.09;5038944;28;20747;-87
2023/09/25 04:32:09;;;;;;;3.42;1.88;;;;;;;14.37;39.24;101867.72;5039739;28;20485;-85
2023/09/25 04:34:37;;;;;;;2.35;1.30;;;;;;;14.35;39.44;101873.38;5040364;28;20055;-85
2023/09/25 04:37:08;;;;;;;3.63;1.58;;;;;;;14.32;39.27;101862.66;5040260;28;20040;-85
2023/09/25 04:39:36;;;;;;;2.20;1.50;;;;;;;14.29;39.60;101859.28;5038413;28;20045;-84
2023/09/25 04:42:05;;;;;;;2.22;1.38;;;;;;;14.28;39.14;101863.03;5039950;28;20164;-84
2023/09/25 04:44:38;;;;;;;3.72;1.88;;;;;;;14.22;39.09;101861.69;5066050;28;20048;-84
2023/09/25 04:47:06;;;;;;;2.10;1.30;;;;;;;14.20;39.22;101855.44;5039911;28;20044;-85
2023/09/25 04:49:35;;;;;;;2.38;1.40;;;;;;;14.16;39.13;101859.47;5037892;28;20052;-85
2023/09/25 04:52:03;;;;;;;3.35;1.42;;;;;;;14.15;39.64;101866.00;5041018;28;20045;-85
2023/09/25 04:54:37;;;;;;;2.00;1.23;;;;;;;14.14;39.33;101863.38;5040231;28;20108;-86
2023/09/25 04:57:07;;;;;;;2.80;1.30;;;;;;;14.11;39.84;101864.50;5060171;28;20048;-86
2023/09/25 04:59:35;;;;;;;2.08;1.30;;;;;;;14.09;39.82;101869.28;5036618;28;20047;-85
2023/09/25 05:02:03;;;;;;;3.00;1.45;;;;;;;14.07;39.74;101865.78;5038897;28;20048;-85
2023/09/25 05:04:31;;;;;;;2.75;1.38;;;;;;;14.06;40.00;101861.28;5035164;28;20493;-85
2023/09/25 05:06:59;;;;;;;2.85;1.42;;;;;;;14.06;39.94;101857.66;5038709;28;20132;-82
2023/09/25 05:09:28;;;;;;;2.75;1.35;;;;;;;14.06;40.18;101864.03;5037888;28;20472;-82
2023/09/25 05:11:57;;;;;;;2.60;1.50;;;;;;;14.05;39.78;101855.91;5071902;28;20358;-84
2023/09/25 05:14:28;;;;;;;3.25;1.42;;;;;;;14.04;40.08;101856.91;5038505;28;20060;-83
2023/09/25 05:16:59;;;;;;;2.65;1.35;;;;;;;14.02;39.95;101863.41;5040049;28;20179;-83
2023/09/25 05:19:27;;;;;;;3.72;1.58;;;;;;;14.01;40.14;101863.56;5059568;28;20072;-83
2023/09/25 05:21:58;;;;;;;2.53;1.50;;;;;;;14.02;40.38;101857.06;5042040;28;20367;-82
2023/09/25 05:24:26;;;;;;;2.63;1.55;;;;;;;14.00;39.83;101861.81;5062002;28;20712;-82
2023/09/25 05:26:55;;;;;;;2.55;1.30;;;;;;;14.00;40.00;101862.69;5046565;28;20048;-82
2023/09/25 05:29:23;;;;;;;2.88;1.40;;;;;;;13.99;40.29;101863.69;5053180;28;20053;-82
2023/09/25 05:31:52;;;;;;;3.22;1.38;;;;;;;14.04;40.12;101862.41;5051319;28;20112;-82
2023/09/25 05:34:20;;;;;;;2.50;1.40;;;;;;;14.00;40.39;101857.19;5042120;28;20052;-81
2023/09/25 05:36:48;;;;;;;2.97;1.40;;;;;;;13.99;40.43;101849.94;5056163;28;20064;-82
2023/09/25 05:39:17;;;;;;;3.30;1.60;;;;;;;14.02;40.02;101858.94;5040024;28;20490;-83
2023/09/25 05:41:46;;;;;;;3.05;1.33;;;;;;;14.02;40.19;101853.44;5038989;28;20168;-82
2023/09/25 05:44:14;;;;;;;2.95;1.40;;;;;;;14.01;40.18;101858.06;5042230;28;20685;-82
2023/09/25 05:46:42;;;;;;;2.80;1.50;;;;;;;14.02;40.53;101862.56;5040253;28;20060;-83
2023/09/25 05:49:11;;;;;;;3.95;1.35;;;;;;;14.06;40.31;101865.91;5042591;28;20052;-82
2023/09/25 05:51:39;;;;;;;3.20;1.52;;;;;;;14.04;40.53;101870.66;5038781;28;20439;-82
2023/09/25 05:54:07;;;;;;;2.00;1.30;;;;;;;14.07;40.41;101867.66;5040794;28;20040;-82
2023/09/25 05:56:39;;;;;;;2.08;1.35;;;;;;;14.07;40.42;101867.66;5040612;28;20102;-82
2023/09/25 05:59:08;;;;;;;3.17;1.33;;;;;;;14.10;40.63;101867.41;5039604;28;20821;-81
2023/09/25 06:01:36;;;;;;;2.30;1.20;;;;;;;14.11;40.24;101872.75;5042079;28;20159;-82
2023/09/25 06:04:21;;;;;;;2.60;1.38;;;;;;;14.16;40.53;101880.63;5059010;28;20382;-83
2023/09/25 06:07:55;;;;;;;2.78;1.38;;;;;;;14.17;40.66;101882.38;5049234;28;20467;-83
2023/09/25 06:10:26;;;;;;;6.07;1.42;;;;;;;14.20;40.18;101879.34;5042868;28;20420;-83
2023/09/25 06:12:59;;;;;;;2.40;1.40;;;;;;;14.22;40.43;101869.94;5041225;28;20053;-83
2023/09/25 06:15:33;;;;;;;1.63;1.15;;;;;;;14.25;40.22;101877.97;5037570;28;20056;-83
2023/09/25 06:18:13;;;;;;;3.00;1.33;;;;;;;14.26;40.29;101878.84;5043728;28;20112;-84
2023/09/25 06:20:43;;;;;;;2.50;1.35;;;;;;;14.30;40.38;101872.91;5042675;28;20045;-83
2023/09/25 06:23:13;;;;;;;2.80;1.50;;;;;;;14.35;40.11;101875.28;5069973;28;20858;-83
2023/09/25 06:25:44;;;;;;;3.03;1.40;;;;;;;14.34;40.21;101866.16;5060218;28;20101;-83
2023/09/25 06:28:14;;;;;;;2.47;1.40;;;;;;;14.38;40.65;101880.50;5066020;28;20049;-83
2023/09/25 06:30:42;;;;;;;3.13;1.30;;;;;;;14.39;40.28;101877.63;5040345;28;20049;-82
2023/09/25 06:33:10;;;;;;;3.35;1.45;;;;;;;14.44;40.34;101876.31;5061857;28;20080;-83
2023/09/25 06:35:39;;;;;;;3.42;1.60;;;;;;;14.48;40.54;101877.84;5042486;28;20045;-84
2023/09/25 06:38:07;;;;;;;3.22;1.30;;;;;;;14.50;40.28;101871.19;5059683;28;20098;-82
2023/09/25 06:40:43;;;;;;;2.00;1.20;;;;;;;14.56;40.74;101881.66;5042155;28;20174;-84
2023/09/25 06:43:12;;;;;;;1.70;1.20;;;;;;;14.59;41.26;101884.16;5042630;28;20052;-82
2023/09/25 06:45:39;;;;;;;2.58;1.23;;;;;;;14.66;41.37;101890.88;5056782;28;20642;-81
2023/09/25 06:48:08;;;;;;;3.17;1.65;;;;;;;14.80;41.46;101891.50;5066297;28;20040;-81
2023/09/25 06:50:36;;;;;;;2.92;1.40;;;;;;;14.93;41.68;101892.19;5040598;28;20040;-82
2023/09/25 06:53:05;;;;;;;2.72;1.55;;;;;;;15.09;41.80;101887.88;5042812;28;20052;-82
2023/09/25 06:55:33;;;;;;;2.28;1.25;;;;;;;15.29;42.17;101883.31;5041483;28;20537;-83
2023/09/25 06:58:03;;;;;;;3.20;1.30;;;;;;;15.52;42.08;101882.09;5060530;28;20044;-83
2023/09/25 07:00:34;;;;;;;2.90;1.40;;;;;;;15.75;42.22;101877.22;5041436;28;20566;-84
2023/09/25 07:03:21;;;;;;;1.77;0.93;;;;;;;16.01;41.71;101877.50;5044745;28;20048;-83
2023/09/25 07:05:49;;;;;;;2.90;1.73;;;;;;;16.27;41.18;101881.44;5045575;28;20053;-83
2023/09/25 07:08:18;;;;;;;3.92;1.30;;;;;;;16.49;40.75;101880.28;5054623;28;20056;-81
2023/09/25 07:10:48;;;;;;;2.45;1.30;;;;;;;16.69;40.31;101881.06;5082249;28;20036;-80
2023/09/25 07:13:19;;;;;;;2.90;1.50;;;;;;;16.90;39.75;101878.13;5056853;28;20062;-81
2023/09/25 07:15:48;;;;;;;1.95;1.35;;;;;;;17.08;39.33;101879.06;5061257;28;20044;-82
2023/09/25 07:18:17;;;;;;;2.40;1.30;;;;;;;17.24;39.50;101875.66;5045460;28;20051;-84
2023/09/25 07:20:46;;;;;;;2.38;1.35;;;;;;;17.40;38.79;101862.03;5045937;28;20143;-82
2023/09/25 07:23:14;;;;;;;2.45;1.20;;;;;;;17.55;38.75;101865.16;5061675;28;20045;-83
2023/09/25 07:25:42;;;;;;;2.00;1.05;;;;;;;17.67;38.49;101872.19;5044652;28;20286;-83
2023/09/25 07:28:11;;;;;;;2.00;1.20;;;;;;;17.78;37.79;101872.00;5063452;28;20059;-83
2023/09/25 07:30:44;;;;;;;2.22;1.10;;;;;;;17.94;37.05;101874.94;5043781;28;20048;-83
2023/09/25 07:33:13;;;;;;;2.35;1.20;;;;;;;18.00;37.79;101877.06;5060091;28;20829;-84
2023/09/25 07:35:42;;;;;;;2.53;1.20;;;;;;;18.13;37.26;101888.63;5044180;28;20041;-82
2023/09/25 07:38:11;;;;;;;3.08;1.38;;;;;;;18.24;36.92;101884.72;5042400;28;20262;-81
2023/09/25 07:40:39;;;;;;;2.13;1.25;;;;;;;18.35;37.17;101890.03;5064446;28;20495;-82
2023/09/25 07:43:07;;;;;;;2.30;1.30;;;;;;;18.45;36.63;101899.13;5046016;28;20037;-82
2023/09/25 07:45:36;;;;;;;2.30;1.40;;;;;;;18.54;36.10;101890.91;5046322;28;20041;-82
2023/09/25 07:48:07;;;;;;;2.28;1.38;;;;;;;18.62;35.72;101879.88;5043935;28;20051;-80
2023/09/25 07:50:35;;;;;;;5.55;2.30;;;;;;;18.65;36.00;101883.19;5040208;28;20052;-80
2023/09/25 07:53:04;;;;;;;1.63;1.10;;;;;;;18.71;35.59;101885.31;5042077;28;20055;-80
2023/09/25 07:55:32;;;;;;;2.33;1.40;;;;;;;18.73;35.57;101886.00;5043698;28;20052;-80
2023/09/25 07:58:00;;;;;;;2.95;1.48;;;;;;;18.75;35.28;101883.94;5061250;28;20040;-80
2023/09/25 08:00:36;;;;;;;1.92;1.10;;;;;;;18.76;35.29;101888.47;5041303;28;20079;-81
2023/09/25 08:03:09;;;;;;;2.40;1.30;;;;;;;18.74;33.96;101890.53;5059189;28;20108;-79
2023/09/25 08:05:37;;;;;;;3.08;1.30;;;;;;;18.72;34.83;101894.50;5040913;28;20113;-80
2023/09/25 08:08:06;;;;;;;2.53;1.25;;;;;;;18.72;34.41;101889.81;5041717;28;20082;-80
2023/09/25 08:10:34;;;;;;;3.03;1.20;;;;;;;18.69;34.22;101895.69;5043853;28;20110;-79
2023/09/25 08:13:02;;;;;;;2.80;1.40;;;;;;;18.67;34.57;101889.44;5053279;28;20044;-83
2023/09/25 08:15:30;;;;;;;3.72;1.48;;;;;;;18.61;33.93;101895.66;5047061;28;20064;-83
2023/09/25 08:17:58;;;;;;;2.97;1.30;;;;;;;18.58;33.67;101884.00;5046689;28;20113;-82
2023/09/25 08:20:28;;;;;;;3.28;1.33;;;;;;;18.56;33.92;101891.59;5045898;28;20065;-82
2023/09/25 08:22:56;;;;;;;2.28;1.23;;;;;;;18.49;33.80;101891.38;5045199;28;20057;-82
2023/09/25 08:25:25;;;;;;;2.92;1.20;;;;;;;18.44;33.71;101885.44;5042949;28;20049;-82
2023/09/25 08:27:53;;;;;;;2.38;1.20;;;;;;;18.40;34.04;101890.41;5058896;28;20077;-81
2023/09/25 08:30:22;;;;;;;3.63;1.83;;;;;;;18.35;34.20;101884.50;5040233;28;20063;-82
2023/09/25 08:32:51;;;;;;;2.42;1.63;;;;;;;18.32;34.06;101879.25;5066688;28;20539;-82
2023/09/25 08:35:19;;;;;;;3.50;1.30;;;;;;;18.30;33.93;101872.16;5041972;28;20056;-81
2023/09/25 08:37:49;;;;;;;2.03;1.20;;;;;;;18.28;33.92;101877.84;5041425;28;20150;-82
2023/09/25 08:40:17;;;;;;;2.10;1.20;;;;;;;18.27;34.11;101880.78;5069115;28;20045;-82
2023/09/25 08:42:47;;;;;;;1.85;1.10;;;;;;;18.27;34.22;101876.09;5044564;28;20637;-82
2023/09/25 08:45:15;;;;;;;2.28;1.20;;;;;;;18.24;34.33;101881.97;5042743;28;20048;-82
2023/09/25 08:47:45;;;;;;;2.92;1.20;;;;;;;18.25;33.94;101878.16;5044968;28;20049;-82
2023/09/25 08:50:14;;;;;;;2.33;1.20;;;;;;;18.25;34.00;101880.06;5063217;28;20032;-81
2023/09/25 08:52:42;;;;;;;1.88;1.02;;;;;;;18.26;34.15;101884.56;5084130;28;20041;-80
2023/09/25 08:55:12;;;;;;;2.80;1.40;;;;;;;18.29;34.35;101875.94;5061446;28;20120;-81
2023/09/25 08:57:40;;;;;;;2.10;1.15;;;;;;;18.27;34.08;101889.97;5042866;28;20049;-80
2023/09/25 09:00:14;;;;;;;2.20;1.23;;;;;;;18.30;34.50;101888.78;5043415;28;20402;-82
2023/09/25 09:02:43;;;;;;;2.67;1.35;;;;;;;18.29;34.42;101884.28;5047678;28;20097;-81
2023/09/25 09:05:12;;;;;;;2.63;1.30;;;;;;;18.31;33.91;101888.59;5052895;28;20049;-82
2023/09/25 09:07:55;;;;;;;2.25;1.45;;;;;;;18.32;33.12;101884.78;5068990;28;20052;-81
2023/09/25 09:10:30;;;;;;;2.67;1.40;;;;;;;18.34;33.76;101896.59;5073802;28;20142;-81
2023/09/25 09:12:58;;;;;;;2.60;1.30;;;;;;;18.33;34.09;101885.66;5064097;28;20049;-81
2023/09/25 09:15:31;;;;;;;2.75;1.33;;;;;;;18.36;33.97;101885.38;5045116;28;20051;-81
2023/09/25 09:18:20;;;;;;;2.08;1.42;;;;;;;18.38;33.77;101889.72;5063183;28;20239;-83
2023/09/25 09:20:56;;;;;;;2.28;1.30;;;;;;;18.42;34.25;101885.59;5063784;28;20145;-83
2023/09/25 09:23:42;;;;;;;1.73;1.05;;;;;;;18.43;33.27;101894.78;5068498;28;20553;-82
2023/09/25 09:26:13;;;;;;;2.83;1.20;;;;;;;18.49;33.54;101885.84;5043237;28;20847;-83
2023/09/25 09:28:43;;;;;;;2.95;1.20;;;;;;;18.52;33.72;101883.63;5043066;28;20056;-82
2023/09/25 09:31:12;;;;;;;2.60;1.30;;;;;;;18.56;33.55;101875.84;5067391;28;20064;-83
2023/09/25 09:33:41;;;;;;;3.05;1.20;;;;;;;18.60;33.01;101868.94;5062390;28;20518;-81
2023/09/25 09:36:10;;;;;;;3.80;1.52;;;;;;;18.64;33.18;101875.88;5041674;28;20114;-82
2023/09/25 09:38:40;;;;;;;2.40;1.30;;;;;;;18.69;32.96;101873.53;5070475;28;20045;-81
2023/09/25 09:41:08;;;;;;;2.22;1.30;;;;;;;18.73;33.39;101868.50;5061241;28;20055;-80
2023/09/25 09:43:38;;;;;;;1.92;1.27;;;;;;;18.79;33.25;101868.75;5042299;28;20102;-80
2023/09/25 09:46:11;;;;;;;2.08;1.20;;;;;;;18.83;33.34;101864.59;5041277;28;20552;-80
2023/09/25 09:48:39;;;;;;;;;;;;;;;18.56;33.46;101858.31;5069513;28;20051;-82
2023/09/25 09:51:12;;;;;;;2.15;1.10;;;;;;;18.89;33.00;101860.28;5051055;28;20839;-82
2023/09/25 09:53:41;;;;;;;2.00;1.10;;;;;;;18.97;33.16;101862.22;5043140;28;20059;-80
2023/09/25 09:56:10;;;;;;;2.35;1.40;;;;;;;19.06;33.09;101864.00;5044447;28;20072;-80
2023/09/25 09:58:40;;;;;;;2.22;1.23;;;;;;;19.11;33.07;101856.06;5040588;28;20576;-81
2023/09/25 10:01:08;;;;;;;2.28;1.17;;;;;;;19.14;32.58;101864.91;5048119;28;20574;-80
2023/09/25 10:03:36;;;;;;;2.13;1.30;;;;;;;19.20;32.95;101855.97;5042725;28;20572;-80
2023/09/25 10:06:05;;;;;;;2.75;1.30;;;;;;;19.27;33.24;101853.41;5063650;28;20733;-82
2023/09/25 10:08:33;;;;;;;2.22;1.27;;;;;;;19.33;33.04;101849.94;5044384;28;20052;-83
2023/09/25 10:11:15;;;;;;;2.80;1.58;;;;;;;19.42;31.81;101842.50;5044056;28;20052;-82
2023/09/25 10:13:45;;;;;;;2.70;1.40;;;;;;;19.45;32.74;101839.41;5061047;28;20557;-80
2023/09/25 10:16:15;;;;;;;2.95;1.42;;;;;;;19.50;32.62;101843.41;5042187;28;20112;-82
2023/09/25 10:18:43;;;;;;;3.40;1.23;;;;;;;19.56;32.21;101841.84;5045543;28;20044;-82
2023/09/25 10:21:14;;;;;;;2.97;1.10;;;;;;;19.61;32.52;101843.09;5059909;28;20134;-82
2023/09/25 10:23:47;;;;;;;2.70;1.10;;;;;;;19.68;31.84;101837.72;5036853;28;20055;-82
2023/09/25 10:26:19;;;;;;;2.38;1.20;;;;;;;19.74;32.07;101831.47;5046427;28;20071;-82
2023/09/25 10:28:58;;;;;;;2.80;1.40;;;;;;;19.80;31.45;101829.91;5048480;28;20115;-82
2023/09/25 10:31:29;;;;;;;2.05;1.40;;;;;;;19.82;32.25;101820.38;5072510;28;20108;-81
2023/09/25 10:33:59;;;;;;;2.55;1.15;;;;;;;19.89;32.05;101823.34;5066183;28;20052;-82
2023/09/25 10:36:39;;;;;;;2.90;1.20;;;;;;;19.96;31.22;101827.19;5084095;28;20104;-81
2023/09/25 10:39:08;;;;;;;2.45;1.15;;;;;;;20.01;32.21;101827.56;5073595;28;20059;-82
2023/09/25 10:41:37;;;;;;;2.60;1.30;;;;;;;20.06;31.99;101819.56;5045013;28;20060;-83
2023/09/25 10:44:06;;;;;;;2.15;1.08;;;;;;;20.16;31.12;101814.69;5062692;28;20288;-84
2023/09/25 10:46:35;;;;;;;2.92;1.17;;;;;;;20.20;31.27;101816.06;5041444;28;20132;-83
2023/09/25 10:49:03;;;;;;;2.10;1.20;;;;;;;20.25;31.49;101810.88;5063264;28;20155;-83
2023/09/25 10:51:31;;;;;;;1.77;1.15;;;;;;;20.33;31.75;101810.00;5046624;28;20075;-83
2023/09/25 10:54:02;;;;;;;2.72;1.30;;;;;;;20.42;31.40;101803.38;5048340;28;20079;-83
2023/09/25 10:56:30;;;;;;;2.50;1.20;;;;;;;20.46;31.35;101803.88;5049105;28;20052;-83
2023/09/25 10:58:58;;;;;;;2.83;1.20;;;;;;;20.51;31.05;101818.16;5049052;28;20138;-82
2023/09/25 11:01:30;;;;;;;2.13;1.13;;;;;;;20.57;29.95;101801.59;5043455;28;20114;-82
2023/09/25 11:03:59;;;;;;;3.55;1.35;;;;;;;20.56;30.70;101808.22;5043980;28;20472;-83
2023/09/25 11:06:29;;;;;;;2.50;1.15;;;;;;;20.60;30.19;101806.00;5043643;28;20059;-82
2023/09/25 11:08:58;;;;;;;1.92;1.00;;;;;;;20.62;30.01;101803.88;5063898;28;20106;-83
2023/09/25 11:11:29;;;;;;;2.03;1.02;;;;;;;20.64;30.10;101810.13;5041396;28;20052;-81
2023/09/25 11:13:58;;;;;;;2.05;1.20;;;;;;;20.61;29.76;101818.88;5044346;28;20048;-83
2023/09/25 11:16:26;;;;;;;2.95;1.35;;;;;;;20.62;29.74;101806.66;5041804;28;20080;-82
2023/09/25 11:19:07;;;;;;;2.25;1.27;;;;;;;20.66;29.38;101803.38;5042813;28;20131;-83
2023/09/25 11:21:35;;;;;;;2.33;1.10;;;;;;;20.65;29.99;101806.31;5062976;28;20045;-82
2023/09/25 11:24:06;;;;;;;1.95;1.00;;;;;;;20.70;29.54;101807.50;5042732;28;20067;-83
2023/09/25 11:26:36;;;;;;;2.25;1.00;;;;;;;20.75;30.04;101816.22;5049664;28;20061;-82
2023/09/25 11:29:08;;;;;;;2.33;0.85;;;;;;;20.80;29.53;101814.78;5069329;28;20048;-82
2023/09/25 11:31:37;;;;;;;2.97;1.20;;;;;;;20.78;29.74;101823.31;5043470;28;20136;-82
2023/09/25 11:34:27;;;;;;;2.25;1.33;;;;;;;20.82;29.97;101810.78;5043552;28;20466;-82
2023/09/25 11:36:56;;;;;;;2.60;1.10;;;;;;;20.85;29.75;101809.56;5043367;28;20464;-81